Terminal Aerodrome Forecast
Issued by NWS

Home | Current Version | Previous Version | Graphics & Text | Print | Product List | Glossary On
Versions: 1 2 3 4 5 6 7 8 9 10 11 12 13 14 15 16 17 18 19 20 21 22 23
217
FTUS43 KABR 080523
TAFATY
TAF
KATY 080523Z 0806/0906 30020G27KT 3SM -SN BLSN OVC015
     FM081000 30018G27KT 6SM -SN BLSN OVC050
     FM081700 31016G23KT P6SM OVC050
     FM090200 31011KT P6SM BKN035=

USA.gov is the U.S. government's official web portal to all federal, state and local government web resources and services.